Time;durP1;ratioP1;P1;durP2;ratioP2;P2;SDS_P1;SDS_P2;PMS_P1;PMS_P2;Temp;Humidity;BMP_temperature;BMP_pressure;BME280_temperature;BME280_humidity;BME280_pressure;Samples;Min_cycle;Max_cycle;Signal;HPM_P1;HPM_P2
2022/09/19 00:01:55;;;;;;;6.30;2.50;;;;;;;8.69;68.81;98039.54;106120;1274;96542;-63
2022/09/19 00:04:30;;;;;;;8.50;2.60;;;;;;;8.68;68.88;98039.61;106070;1274;111491;-64
2022/09/19 00:06:59;;;;;;;9.10;2.80;;;;;;;8.68;68.88;98038.94;106160;1274;97918;-62
2022/09/19 00:09:31;;;;;;;8.30;2.80;;;;;;;8.67;68.72;98034.63;106049;1274;107027;-63
2022/09/19 00:12:01;;;;;;;8.50;2.80;;;;;;;8.67;68.65;98035.52;106001;1274;95299;-64
2022/09/19 00:14:31;;;;;;;9.10;2.80;;;;;;;8.65;68.92;98036.31;106094;1273;97967;-62
2022/09/19 00:17:03;;;;;;;8.40;3.00;;;;;;;8.64;68.74;98040.27;106115;1274;111317;-62
2022/09/19 00:19:31;;;;;;;7.80;2.80;;;;;;;8.63;68.81;98035.98;106024;1274;97918;-62
2022/09/19 00:22:00;;;;;;;8.70;3.30;;;;;;;8.61;68.81;98031.31;106016;1274;108341;-64
2022/09/19 00:24:50;;;;;;;9.80;3.10;;;;;;;8.60;68.73;98032.49;106019;1274;97983;-65
2022/09/19 00:27:22;;;;;;;6.60;2.90;;;;;;;8.57;68.75;98031.83;106088;1274;97856;-63
2022/09/19 00:29:50;;;;;;;10.10;2.80;;;;;;;8.55;68.81;98027.61;106114;1274;111185;-63
2022/09/19 00:32:20;;;;;;;5.60;2.70;;;;;;;8.53;68.59;98023.39;106061;1274;95189;-63
2022/09/19 00:34:50;;;;;;;7.50;2.80;;;;;;;8.51;68.69;98022.12;106000;1274;109027;-63
2022/09/19 00:37:20;;;;;;;7.90;2.70;;;;;;;8.49;68.69;98019.05;106083;1274;96976;-63
2022/09/19 00:39:48;;;;;;;8.90;2.70;;;;;;;8.47;68.67;98021.48;105994;1274;95403;-64
2022/09/19 00:42:21;;;;;;;6.70;2.80;;;;;;;8.47;68.85;98020.81;105909;1277;111988;-64
2022/09/19 00:44:55;;;;;;;7.30;2.40;;;;;;;8.45;68.78;98016.88;106003;1274;97892;-64
2022/09/19 00:47:29;;;;;;;5.10;2.40;;;;;;;8.45;68.77;98011.23;105950;1274;106739;-65
2022/09/19 00:49:59;;;;;;;11.20;3.30;;;;;;;8.44;68.72;98013.77;106089;1274;97967;-62
2022/09/19 00:52:37;;;;;;;5.50;2.80;;;;;;;8.44;68.60;98016.09;106250;1274;97889;-63
2022/09/19 00:55:05;;;;;;;9.40;3.00;;;;;;;8.43;68.75;98014.73;106173;1274;111443;-64
2022/09/19 00:57:47;;;;;;;7.10;2.90;;;;;;;8.42;68.79;98012.72;106122;1274;97957;-62
2022/09/19 01:00:14;;;;;;;5.10;2.60;;;;;;;8.41;68.66;98014.23;105988;1274;108311;-62
2022/09/19 01:02:42;;;;;;;5.10;2.00;;;;;;;8.40;68.57;98013.96;105855;1275;97842;-64
2022/09/19 01:05:11;;;;;;;5.90;2.50;;;;;;;8.37;68.76;98012.04;106121;1274;99404;-63
2022/09/19 01:08:15;;;;;;;6.40;2.50;;;;;;;8.35;68.71;98013.42;106044;1273;112095;-63
2022/09/19 01:11:10;;;;;;;7.60;2.30;;;;;;;8.33;68.70;98016.10;106237;1274;97948;-62
2022/09/19 01:14:06;;;;;;;6.90;2.50;;;;;;;8.31;68.59;98011.66;106186;1274;108398;-63
2022/09/19 01:16:42;;;;;;;6.40;2.40;;;;;;;8.29;68.73;98011.41;106026;1274;97982;-64
2022/09/19 01:19:23;;;;;;;5.50;2.40;;;;;;;8.29;68.73;98013.23;106061;1274;97954;-64
2022/09/19 01:22:05;;;;;;;6.20;2.90;;;;;;;8.27;68.84;98006.64;106021;1276;112069;-63
2022/09/19 01:24:55;;;;;;;4.00;2.40;;;;;;;8.27;68.66;98001.92;106086;1274;97957;-64
2022/09/19 01:27:29;;;;;;;6.40;2.40;;;;;;;8.26;68.84;97999.00;106049;1274;108462;-63
2022/09/19 01:30:05;;;;;;;2.80;1.90;;;;;;;8.25;68.74;98001.49;106027;1275;97966;-64
2022/09/19 01:32:57;;;;;;;10.90;2.50;;;;;;;8.26;68.83;98001.84;106198;1274;97921;-64
2022/09/19 01:35:32;;;;;;;6.70;2.80;;;;;;;8.27;68.62;97997.52;106154;1274;112009;-63
2022/09/19 01:38:13;;;;;;;6.00;2.80;;;;;;;8.26;68.50;97997.71;106190;1274;97950;-64
2022/09/19 01:40:43;;;;;;;10.40;2.80;;;;;;;8.26;68.66;97997.36;106063;1274;108290;-65
2022/09/19 01:43:13;;;;;;;5.70;2.70;;;;;;;8.26;68.72;97996.53;105994;1274;97983;-64
2022/09/19 01:45:42;;;;;;;5.60;2.10;;;;;;;8.26;68.92;98001.83;106040;1274;99002;-63
2022/09/19 01:48:22;;;;;;;5.40;2.10;;;;;;;8.25;68.75;97998.71;106080;1274;110180;-64
2022/09/19 01:51:21;;;;;;;5.20;2.20;;;;;;;8.25;68.72;97996.09;106054;1274;95294;-64
2022/09/19 01:54:29;;;;;;;8.90;2.40;;;;;;;8.24;68.88;97992.10;106066;1274;107828;-63
2022/09/19 01:57:06;;;;;;;5.10;2.30;;;;;;;8.23;68.71;97994.08;106009;1274;97877;-62
2022/09/19 02:00:02;;;;;;;7.10;2.60;;;;;;;8.23;68.80;97989.85;106091;1274;97865;-63
2022/09/19 02:03:05;;;;;;;3.70;2.00;;;;;;;8.23;68.82;97983.48;106079;1274;112103;-64
2022/09/19 02:05:42;;;;;;;6.30;2.40;;;;;;;8.24;69.00;97983.98;106032;1274;97930;-63
2022/09/19 02:08:21;;;;;;;8.80;3.50;;;;;;;8.25;68.91;97989.17;106063;1274;107577;-63
2022/09/19 02:10:54;;;;;;;4.30;2.60;;;;;;;8.26;68.88;97987.14;106154;1274;97983;-64
2022/09/19 02:13:26;;;;;;;5.70;2.20;;;;;;;8.28;68.88;97987.38;106116;1274;95310;-63
2022/09/19 02:16:00;;;;;;;7.50;2.20;;;;;;;8.28;68.79;97992.95;106066;1274;113185;-62
2022/09/19 02:18:36;;;;;;;4.40;2.00;;;;;;;8.31;68.76;97991.70;106089;1274;97974;-63
2022/09/19 02:21:10;;;;;;;7.10;2.20;;;;;;;8.32;69.00;97990.02;106019;1274;108471;-64
2022/09/19 02:23:47;;;;;;;6.30;2.30;;;;;;;8.34;68.84;97992.16;106145;1274;96493;-63
2022/09/19 02:26:20;;;;;;;5.20;2.30;;;;;;;8.34;68.85;97993.36;106156;1274;95292;-63
2022/09/19 02:28:55;;;;;;;8.40;2.50;;;;;;;8.34;68.75;97993.39;106121;1274;111388;-63
2022/09/19 02:31:27;;;;;;;7.50;2.60;;;;;;;8.34;68.70;97996.54;106013;1274;98006;-62
2022/09/19 02:33:59;;;;;;;6.20;2.40;;;;;;;8.35;68.74;97998.77;105974;1275;107787;-62
2022/09/19 02:36:50;;;;;;;6.60;2.50;;;;;;;8.37;68.97;97995.77;105972;1274;95275;-63
2022/09/19 02:39:26;;;;;;;7.50;2.40;;;;;;;8.38;68.85;97997.63;105998;1275;97874;-64
2022/09/19 02:42:03;;;;;;;6.40;2.20;;;;;;;8.40;68.86;97999.48;105995;1274;112089;-64
2022/09/19 02:44:53;;;;;;;6.80;2.20;;;;;;;8.39;68.89;97998.45;106069;1274;98008;-63
2022/09/19 02:47:35;;;;;;;5.70;2.00;;;;;;;8.41;68.96;97996.69;106071;1274;107167;-65
2022/09/19 02:50:29;;;;;;;7.40;2.70;;;;;;;8.44;69.01;97999.33;106062;1274;97831;-65
2022/09/19 02:53:01;;;;;;;7.60;2.60;;;;;;;8.44;69.03;98001.08;106010;1274;97926;-68
2022/09/19 02:55:44;;;;;;;5.10;2.40;;;;;;;8.45;68.95;98003.45;105981;1274;112149;-64
2022/09/19 02:58:15;;;;;;;7.10;2.50;;;;;;;8.45;69.00;98002.53;106006;1274;96910;-63
2022/09/19 03:00:52;;;;;;;9.20;2.50;;;;;;;8.46;69.16;98009.02;106047;1274;106310;-60
2022/09/19 03:06:17;;;;;;;4.00;2.50;;;;;;;8.48;69.03;98014.52;106120;1275;97978;-59
2022/09/19 03:08:48;;;;;;;5.30;2.40;;;;;;;8.48;69.04;98013.45;106159;1274;111066;-58
2022/09/19 03:11:20;;;;;;;5.40;3.00;;;;;;;8.48;69.11;98012.41;106144;1274;97860;-62
2022/09/19 03:13:47;;;;;;;7.80;2.20;;;;;;;8.48;69.07;98019.45;106031;1274;108364;-63
2022/09/19 03:16:21;;;;;;;8.20;2.30;;;;;;;8.48;69.03;98021.76;106013;1274;97861;-63
2022/09/19 03:18:54;;;;;;;6.60;2.40;;;;;;;8.49;69.16;98022.60;106152;1274;97882;-60
2022/09/19 03:21:24;;;;;;;6.00;2.70;;;;;;;8.48;69.09;98018.07;106151;1274;111386;-62
2022/09/19 03:23:58;;;;;;;4.50;2.30;;;;;;;8.48;69.06;98014.90;106029;1274;96339;-61
2022/09/19 03:26:30;;;;;;;5.10;2.30;;;;;;;8.47;69.05;98015.46;106965;1274;107899;-65
2022/09/19 03:28:59;;;;;;;7.10;2.60;;;;;;;8.49;69.19;98018.16;105995;1274;97960;-65
2022/09/19 03:31:27;;;;;;;3.90;2.50;;;;;;;8.50;68.93;98018.98;106121;1274;96978;-63
2022/09/19 03:33:56;;;;;;;9.50;3.10;;;;;;;8.50;69.15;98018.09;105949;1275;110108;-65
2022/09/19 03:36:25;;;;;;;6.20;2.10;;;;;;;8.51;69.07;98018.41;106034;1274;97956;-63
2022/09/19 03:38:55;;;;;;;5.20;2.40;;;;;;;8.50;69.03;98021.80;105955;1274;110203;-63
2022/09/19 03:41:23;;;;;;;6.20;2.80;;;;;;;8.49;69.16;98021.39;105942;1274;98567;-61
2022/09/19 03:43:51;;;;;;;5.10;2.50;;;;;;;8.47;69.07;98025.89;105939;1277;98165;-66
2022/09/19 03:46:20;;;;;;;3.90;2.10;;;;;;;8.45;69.09;98028.19;105948;1274;111410;-64
2022/09/19 03:48:48;;;;;;;6.10;2.60;;;;;;;8.44;69.04;98033.39;106022;1274;97864;-63
2022/09/19 03:51:17;;;;;;;6.40;2.50;;;;;;;8.43;69.08;98036.09;106050;1272;107694;-63
2022/09/19 03:53:45;;;;;;;6.10;2.40;;;;;;;8.43;69.06;98037.37;104883;1274;1450406;-61
2022/09/19 03:56:15;;;;;;;7.70;2.80;;;;;;;8.40;69.19;98036.52;105900;1274;98444;-64
2022/09/19 03:58:43;;;;;;;7.60;2.10;;;;;;;8.40;69.20;98038.84;105958;1274;110957;-62
2022/09/19 04:01:15;;;;;;;4.00;2.00;;;;;;;8.39;69.14;98033.25;105925;1274;97897;-63
2022/09/19 04:03:49;;;;;;;4.00;2.40;;;;;;;8.38;69.16;98034.20;105898;1274;110071;-66
2022/09/19 04:06:17;;;;;;;4.60;2.80;;;;;;;8.38;69.14;98033.38;105942;1274;97971;-64
2022/09/19 04:08:45;;;;;;;4.80;2.40;;;;;;;8.38;69.28;98033.67;105993;1274;97879;-63
2022/09/19 04:11:13;;;;;;;2.60;2.00;;;;;;;8.38;69.36;98034.02;106000;1274;111838;-63
2022/09/19 04:13:41;;;;;;;7.20;2.50;;;;;;;8.40;69.25;98034.80;106036;1274;96546;-63
2022/09/19 04:16:10;;;;;;;5.80;2.60;;;;;;;8.39;69.39;98039.43;105998;1274;108476;-66
2022/09/19 04:18:41;;;;;;;5.30;1.90;;;;;;;8.39;69.47;98033.27;105977;1274;97826;-65
2022/09/19 04:21:09;;;;;;;7.90;2.60;;;;;;;8.38;69.40;98033.16;106022;1274;97975;-63
2022/09/19 04:23:37;;;;;;;3.80;2.10;;;;;;;8.35;69.30;98037.63;105987;1274;111730;-64
2022/09/19 04:26:05;;;;;;;5.20;2.30;;;;;;;8.33;69.43;98041.69;105995;1274;98134;-63
2022/09/19 04:28:33;;;;;;;5.50;2.30;;;;;;;8.30;69.31;98041.41;105959;1274;108368;-64
2022/09/19 04:31:01;;;;;;;4.40;2.00;;;;;;;8.28;69.57;98044.02;105955;1274;97873;-64
2022/09/19 04:33:29;;;;;;;6.10;2.80;;;;;;;8.27;69.39;98039.53;106118;1274;97969;-63
2022/09/19 04:35:59;;;;;;;5.90;2.30;;;;;;;8.27;69.52;98041.67;105982;1274;112088;-64
2022/09/19 04:38:30;;;;;;;3.30;2.30;;;;;;;8.27;69.42;98042.34;106089;1274;97877;-63
2022/09/19 04:41:00;;;;;;;5.50;2.90;;;;;;;8.29;69.64;98042.36;106047;1274;108429;-63
2022/09/19 04:43:29;;;;;;;6.90;2.80;;;;;;;8.30;69.50;98043.16;106054;1274;97860;-61
2022/09/19 04:45:59;;;;;;;4.80;2.80;;;;;;;8.31;69.51;98042.40;106092;1274;97857;-67
2022/09/19 04:48:28;;;;;;;6.20;2.90;;;;;;;8.31;69.60;98045.01;106119;1274;112185;-64
2022/09/19 04:50:56;;;;;;;8.00;3.00;;;;;;;8.32;69.53;98047.59;106142;1274;95368;-63
2022/09/19 04:53:27;;;;;;;8.20;2.80;;;;;;;8.32;69.54;98049.56;106098;1274;108700;-64
2022/09/19 04:55:56;;;;;;;3.90;2.10;;;;;;;8.30;69.59;98052.20;106095;1274;98077;-62
2022/09/19 04:58:24;;;;;;;4.50;2.50;;;;;;;8.28;69.60;98048.96;106146;1274;97870;-64
2022/09/19 05:00:55;;;;;;;5.30;2.30;;;;;;;8.27;69.66;98051.54;106204;1274;112095;-66
2022/09/19 05:03:25;;;;;;;6.20;2.50;;;;;;;8.25;69.60;98056.47;106211;1274;97873;-64
2022/09/19 05:05:54;;;;;;;5.70;2.80;;;;;;;8.22;69.69;98058.12;106165;1274;108447;-67
2022/09/19 05:08:25;;;;;;;6.30;2.90;;;;;;;8.23;69.72;98057.52;106175;1274;97985;-66
2022/09/19 05:10:55;;;;;;;7.30;2.90;;;;;;;8.23;69.68;98064.39;105973;1278;97893;-65
2022/09/19 05:13:28;;;;;;;6.80;2.80;;;;;;;8.23;69.82;98068.05;106019;1275;112053;-64
2022/09/19 05:15:57;;;;;;;7.50;3.00;;;;;;;8.24;69.90;98072.77;106056;1274;95530;-66
2022/09/19 05:18:25;;;;;;;8.40;2.90;;;;;;;8.25;69.93;98076.55;105976;1275;107688;-66
2022/09/19 05:20:55;;;;;;;5.40;2.90;;;;;;;8.26;69.84;98080.56;105962;1274;97755;-66
2022/09/19 05:23:24;;;;;;;7.10;3.20;;;;;;;8.27;69.78;98082.76;106018;1274;97870;-64
2022/09/19 05:25:53;;;;;;;5.80;3.60;;;;;;;8.30;69.97;98082.03;106012;1274;112072;-66
2022/09/19 05:28:26;;;;;;;5.90;2.80;;;;;;;8.32;69.99;98088.20;106012;1274;97908;-65
2022/09/19 05:30:55;;;;;;;4.40;2.80;;;;;;;8.32;70.03;98086.29;106000;1274;107723;-65
2022/09/19 05:33:26;;;;;;;5.00;2.80;;;;;;;8.33;69.81;98089.02;105980;1274;96361;-64
2022/09/19 05:35:59;;;;;;;4.70;3.00;;;;;;;8.33;70.07;98093.41;106041;1274;97886;-64
2022/09/19 05:38:32;;;;;;;7.40;3.10;;;;;;;8.34;70.10;98095.78;106016;1274;111713;-65
2022/09/19 05:41:03;;;;;;;6.10;2.90;;;;;;;8.35;70.26;98099.40;106080;1274;97807;-65
2022/09/19 05:43:32;;;;;;;6.80;2.60;;;;;;;8.38;70.14;98101.67;106144;1274;108563;-65
2022/09/19 05:46:01;;;;;;;6.10;3.20;;;;;;;8.39;70.10;98102.30;106127;1274;97905;-64
2022/09/19 05:48:30;;;;;;;6.60;3.00;;;;;;;8.42;70.31;98109.91;106063;1274;97853;-63
2022/09/19 05:50:58;;;;;;;4.50;2.60;;;;;;;8.45;70.16;98108.73;106134;1278;111974;-65
2022/09/19 05:56:13;;;;;;;9.10;3.30;;;;;;;8.49;70.27;98113.59;106095;1274;108372;-65
2022/09/19 05:58:42;;;;;;;4.80;2.90;;;;;;;8.50;70.20;98115.10;106063;1274;96585;-64
2022/09/19 06:01:13;;;;;;;6.60;2.90;;;;;;;8.52;70.18;98117.41;106140;1274;95301;-64
2022/09/19 06:03:42;;;;;;;4.90;2.60;;;;;;;8.54;70.24;98116.39;106197;1274;111411;-61
2022/09/19 06:06:18;;;;;;;5.90;2.90;;;;;;;8.58;70.20;98123.35;106145;1274;98979;-61
2022/09/19 06:08:55;;;;;;;5.30;2.70;;;;;;;8.60;70.26;98125.46;106205;1273;108370;-61
2022/09/19 06:11:26;;;;;;;3.50;2.60;;;;;;;8.62;70.26;98128.09;106185;1274;95275;-62
2022/09/19 06:16:42;;;;;;;4.10;2.70;;;;;;;8.68;70.45;98136.64;106100;1274;111909;-65
2022/09/19 06:19:10;;;;;;;6.70;2.90;;;;;;;8.71;70.42;98135.73;106017;1274;95248;-60
2022/09/19 06:21:38;;;;;;;4.50;2.70;;;;;;;8.73;70.30;98141.39;106048;1274;108045;-62
2022/09/19 06:24:07;;;;;;;8.50;3.20;;;;;;;8.75;70.46;98140.68;106101;1274;97906;-64
2022/09/19 06:26:36;;;;;;;6.80;2.90;;;;;;;8.78;70.55;98144.86;106107;1274;97861;-63
2022/09/19 06:29:06;;;;;;;9.70;3.60;;;;;;;8.82;70.56;98148.86;106006;1274;112052;-64
2022/09/19 06:31:36;;;;;;;6.00;3.10;;;;;;;8.85;70.67;98157.02;106039;1274;97870;-64
2022/09/19 06:34:05;;;;;;;6.80;3.10;;;;;;;8.89;70.71;98159.95;106109;1274;108238;-65
2022/09/19 06:36:34;;;;;;;7.40;3.40;;;;;;;8.92;70.69;98161.41;106108;1274;95304;-63
2022/09/19 06:39:02;;;;;;;7.70;3.50;;;;;;;8.97;70.61;98161.45;106090;1274;97871;-64
2022/09/19 06:41:31;;;;;;;8.40;3.70;;;;;;;9.01;70.76;98166.02;106146;1274;112014;-66
2022/09/19 06:44:01;;;;;;;6.60;3.40;;;;;;;9.04;70.80;98167.02;106185;1274;96210;-65
2022/09/19 06:46:30;;;;;;;5.40;2.90;;;;;;;9.06;70.80;98167.41;106141;1274;107900;-65
2022/09/19 06:49:00;;;;;;;8.00;3.10;;;;;;;9.07;70.77;98170.52;106020;1274;95295;-64
2022/09/19 06:51:30;;;;;;;7.80;3.60;;;;;;;9.06;70.75;98173.21;106062;1274;97855;-65
2022/09/19 06:53:58;;;;;;;7.10;3.30;;;;;;;9.06;70.89;98176.42;106118;1274;110051;-65
2022/09/19 06:56:27;;;;;;;7.90;3.40;;;;;;;9.09;70.96;98184.52;106199;1274;95459;-63
2022/09/19 06:58:55;;;;;;;8.90;3.40;;;;;;;9.10;70.90;98183.21;106177;1274;108197;-65
2022/09/19 07:01:23;;;;;;;8.50;4.50;;;;;;;9.07;70.86;98185.88;106120;1274;97936;-66
2022/09/19 07:03:52;;;;;;;5.90;3.20;;;;;;;9.06;70.83;98186.20;106038;1274;95273;-65
2022/09/19 07:06:20;;;;;;;7.80;3.10;;;;;;;9.04;70.89;98188.47;106133;1274;112036;-65
2022/09/19 07:08:48;;;;;;;7.60;3.10;;;;;;;9.05;70.83;98188.02;106175;1274;95211;-64
2022/09/19 07:11:18;;;;;;;4.90;2.90;;;;;;;9.09;70.86;98190.86;106173;1274;108511;-64
2022/09/19 07:13:49;;;;;;;4.50;2.40;;;;;;;9.14;70.87;98193.99;106097;1274;97858;-64
2022/09/19 07:16:18;;;;;;;4.30;2.60;;;;;;;9.20;70.97;98195.96;106210;1274;95199;-64
2022/09/19 07:18:47;;;;;;;4.90;2.30;;;;;;;9.26;70.83;98194.98;106204;1274;112020;-63
2022/09/19 07:21:15;;;;;;;3.70;2.50;;;;;;;9.33;70.86;98198.70;106161;1274;96581;-64
2022/09/19 07:23:47;;;;;;;6.60;2.80;;;;;;;9.40;70.85;98198.95;106093;1274;108326;-64
2022/09/19 07:26:15;;;;;;;5.60;2.40;;;;;;;9.49;70.85;98193.70;106085;1274;97801;-65
2022/09/19 07:28:44;;;;;;;6.00;2.70;;;;;;;9.61;70.93;98197.30;106032;1274;97969;-62
2022/09/19 07:31:12;;;;;;;6.80;2.60;;;;;;;9.71;70.97;98199.16;106118;1274;112064;-64
2022/09/19 07:33:40;;;;;;;3.90;2.50;;;;;;;9.79;70.94;98202.16;106077;1274;95177;-65
2022/09/19 07:36:11;;;;;;;8.10;2.60;;;;;;;9.81;70.88;98212.23;106196;1274;106348;-65
2022/09/19 07:38:39;;;;;;;7.20;2.80;;;;;;;9.81;70.91;98214.39;106191;1274;97847;-66
2022/09/19 07:41:07;;;;;;;6.50;3.40;;;;;;;9.82;70.94;98212.02;106225;1274;97946;-65
2022/09/19 07:43:36;;;;;;;5.20;2.70;;;;;;;9.89;70.98;98218.56;106155;1274;111989;-64
2022/09/19 07:46:05;;;;;;;7.60;2.90;;;;;;;9.96;70.95;98219.34;106240;1274;97989;-64
2022/09/19 07:48:34;;;;;;;6.90;2.70;;;;;;;10.04;70.96;98218.66;106147;1274;108606;-64
2022/09/19 07:51:02;;;;;;;5.70;2.90;;;;;;;10.09;70.96;98220.96;106127;1274;97976;-64
2022/09/19 07:53:31;;;;;;;8.20;2.90;;;;;;;10.12;70.92;98221.75;106158;1274;97861;-65
2022/09/19 07:56:00;;;;;;;6.90;2.80;;;;;;;10.12;70.86;98224.96;106124;1274;111623;-65
2022/09/19 07:58:30;;;;;;;5.70;2.90;;;;;;;10.10;70.79;98225.29;106106;1274;95418;-64
2022/09/19 08:01:01;;;;;;;5.20;2.80;;;;;;;10.11;70.86;98223.02;106096;1274;108011;-65
2022/09/19 08:03:28;;;;;;;5.80;2.90;;;;;;;10.14;70.92;98223.02;106139;1274;97978;-68
2022/09/19 08:06:01;;;;;;;3.80;2.60;;;;;;;10.16;70.93;98220.71;106049;1274;98005;-66
2022/09/19 08:08:30;;;;;;;3.50;2.60;;;;;;;10.17;70.89;98223.80;106086;1274;112359;-67
2022/09/19 08:11:00;;;;;;;4.80;2.90;;;;;;;10.19;70.91;98221.84;106131;1274;98032;-65
2022/09/19 08:13:30;;;;;;;5.80;2.70;;;;;;;10.19;70.81;98221.34;106170;1274;108417;-65
2022/09/19 08:15:58;;;;;;;4.50;2.80;;;;;;;10.21;70.87;98226.84;106153;1274;95191;-63
2022/09/19 08:18:31;;;;;;;6.60;2.90;;;;;;;10.22;70.86;98234.16;106154;1274;97881;-67
2022/09/19 08:21:00;;;;;;;4.60;2.90;;;;;;;10.21;70.93;98238.41;106199;1274;111928;-65
2022/09/19 08:23:29;;;;;;;4.60;3.20;;;;;;;10.24;70.95;98235.46;106152;1274;95317;-65
2022/09/19 08:26:02;;;;;;;8.80;3.90;;;;;;;10.36;70.84;98235.91;106095;1274;108352;-64
2022/09/19 08:28:30;;;;;;;6.10;3.30;;;;;;;10.54;70.70;98232.60;106151;1274;97906;-65
2022/09/19 08:31:00;;;;;;;4.50;2.80;;;;;;;10.67;70.66;98231.10;106196;1274;97991;-65
2022/09/19 08:33:29;;;;;;;6.80;3.40;;;;;;;10.74;70.57;98233.00;106171;1274;111444;-62
2022/09/19 08:35:59;;;;;;;3.80;2.90;;;;;;;10.83;70.52;98230.83;106149;1274;95460;-64
2022/09/19 08:38:28;;;;;;;6.90;3.20;;;;;;;10.94;70.47;98230.95;106123;1274;107915;-65
2022/09/19 08:41:05;;;;;;;7.00;3.40;;;;;;;11.15;70.33;98224.65;106098;1274;97976;-65
2022/09/19 08:44:01;;;;;;;4.70;3.30;;;;;;;11.28;70.59;98221.24;106143;1274;95293;-64
2022/09/19 08:46:50;;;;;;;7.00;3.40;;;;;;;11.38;70.50;98226.24;105913;1274;112038;-65
2022/09/19 08:49:42;;;;;;;7.30;3.60;;;;;;;11.40;70.54;98229.41;105909;1274;96523;-64
2022/09/19 08:52:28;;;;;;;6.40;3.20;;;;;;;11.37;70.48;98221.01;106049;1274;108350;-66
2022/09/19 08:55:00;;;;;;;7.80;3.10;;;;;;;11.35;70.37;98219.91;106018;1274;97883;-66
2022/09/19 08:57:33;;;;;;;6.30;3.20;;;;;;;11.37;70.45;98225.61;106136;1274;97959;-66
2022/09/19 09:00:06;;;;;;;7.60;3.70;;;;;;;11.41;70.28;98226.41;106063;1273;112105;-66
2022/09/19 09:02:50;;;;;;;7.50;3.60;;;;;;;11.40;70.14;98226.23;106116;1274;98403;-66
2022/09/19 09:05:44;;;;;;;;;;;;;;;11.43;70.10;98230.36;106121;1274;108342;-66
2022/09/19 09:08:41;;;;;;;6.50;3.10;;;;;;;11.52;70.15;98231.92;106163;1274;97947;-66
2022/09/19 09:11:31;;;;;;;7.40;3.30;;;;;;;11.62;70.02;98235.24;106183;1274;97884;-65
2022/09/19 09:14:16;;;;;;;8.10;3.40;;;;;;;11.58;70.05;98237.55;106035;1274;112038;-67
2022/09/19 09:17:08;;;;;;;7.30;3.10;;;;;;;11.54;70.18;98238.77;106064;1274;97945;-65
2022/09/19 09:20:05;;;;;;;8.00;3.10;;;;;;;11.51;69.84;98236.58;106060;1274;107340;-64
2022/09/19 09:22:44;;;;;;;5.90;3.30;;;;;;;11.63;69.90;98241.53;106030;1274;98011;-68
2022/09/19 09:25:20;;;;;;;5.40;3.10;;;;;;;11.75;69.72;98240.50;106047;1274;97880;-66
2022/09/19 09:27:58;;;;;;;7.50;3.80;;;;;;;11.79;69.78;98237.61;106053;1274;111961;-67
2022/09/19 09:30:26;;;;;;;6.00;3.10;;;;;;;11.74;69.53;98241.12;106085;1274;97903;-65
2022/09/19 09:33:23;;;;;;;8.00;3.40;;;;;;;11.64;69.65;98242.86;106109;1274;108672;-66
2022/09/19 09:36:06;;;;;;;7.00;3.20;;;;;;;11.50;69.60;98244.70;105963;1273;95271;-66
2022/09/19 09:38:45;;;;;;;12.50;3.50;;;;;;;11.32;69.59;98245.73;106104;1274;97918;-66
2022/09/19 09:41:45;;;;;;;6.30;2.80;;;;;;;11.26;69.56;98246.56;106031;1274;112074;-65
2022/09/19 09:44:51;;;;;;;5.80;3.30;;;;;;;11.26;69.42;98245.92;106082;1274;97943;-65
2022/09/19 09:48:01;;;;;;;6.50;3.00;;;;;;;11.43;69.46;98242.62;106030;1274;108685;-66
2022/09/19 09:50:54;;;;;;;9.70;3.30;;;;;;;11.77;69.29;98244.75;106073;1274;95194;-64
2022/09/19 09:53:55;;;;;;;5.20;2.50;;;;;;;12.00;69.17;98239.98;106124;1274;97929;-65
2022/09/19 09:56:53;;;;;;;7.10;2.70;;;;;;;12.08;69.03;98241.65;106039;1274;111858;-67
2022/09/19 10:05:36;;;;;;;5.40;2.60;;;;;;;12.09;69.10;98250.88;106041;1274;97884;-65
2022/09/19 10:08:28;;;;;;;5.50;2.50;;;;;;;12.22;69.13;98253.45;106170;1274;97876;-64
2022/09/19 10:11:09;;;;;;;4.80;2.40;;;;;;;12.29;69.02;98253.88;106093;1274;112624;-65
2022/09/19 10:14:04;;;;;;;9.30;2.30;;;;;;;12.33;68.68;98252.11;106065;1274;96392;-65
2022/09/19 10:16:34;;;;;;;5.10;2.50;;;;;;;12.29;68.47;98260.08;105985;1273;108406;-65
2022/09/19 10:19:25;;;;;;;9.50;2.40;;;;;;;12.19;68.57;98266.55;106111;1274;97940;-64
2022/09/19 10:21:56;;;;;;;3.50;2.20;;;;;;;12.12;68.39;98265.55;106152;1274;97886;-63
2022/09/19 10:24:45;;;;;;;4.60;2.40;;;;;;;12.05;68.44;98274.75;106100;1274;111942;-65
2022/09/19 10:27:23;;;;;;;6.90;2.80;;;;;;;11.93;68.38;98280.59;106088;1274;97973;-65
2022/09/19 10:29:59;;;;;;;3.30;2.60;;;;;;;11.82;68.22;98281.94;106056;1274;108331;-66
2022/09/19 10:32:36;;;;;;;9.80;3.10;;;;;;;11.73;68.18;98282.91;106103;1274;96472;-65
2022/09/19 10:35:26;;;;;;;6.60;2.90;;;;;;;11.66;67.93;98283.16;106088;1274;97896;-64
2022/09/19 10:38:00;;;;;;;7.60;3.20;;;;;;;11.65;68.07;98284.68;106135;1274;111978;-65
2022/09/19 10:40:30;;;;;;;6.30;2.80;;;;;;;11.76;68.10;98282.00;106119;1274;97516;-64
2022/09/19 10:43:01;;;;;;;7.30;3.40;;;;;;;11.92;68.22;98285.66;106087;1274;107744;-63
2022/09/19 10:45:33;;;;;;;7.90;3.40;;;;;;;12.04;68.10;98284.97;106135;1274;97886;-63
2022/09/19 10:48:19;;;;;;;6.50;3.40;;;;;;;12.15;68.02;98281.80;106100;1274;97864;-64
2022/09/19 10:50:49;;;;;;;4.90;2.50;;;;;;;12.24;67.85;98289.89;106075;1274;112064;-64
2022/09/19 10:53:22;;;;;;;6.50;2.80;;;;;;;12.27;67.80;98293.40;106112;1274;97959;-65
2022/09/19 10:55:52;;;;;;;6.70;2.90;;;;;;;12.25;67.62;98294.77;106124;1274;107798;-64
2022/09/19 10:58:27;;;;;;;6.10;2.70;;;;;;;12.25;67.50;98291.10;106050;1274;97943;-65
2022/09/19 11:01:01;;;;;;;7.10;3.00;;;;;;;12.19;67.57;98293.02;106111;1274;97915;-65
2022/09/19 11:03:33;;;;;;;7.60;3.30;;;;;;;12.13;67.47;98295.32;106001;1274;112392;-65
2022/09/19 11:06:16;;;;;;;5.90;3.30;;;;;;;12.11;67.50;98292.34;106491;1274;95905;-65
2022/09/19 11:08:49;;;;;;;14.00;3.40;;;;;;;12.10;67.20;98299.16;106044;1274;108520;-64
2022/09/19 11:11:45;;;;;;;5.20;2.70;;;;;;;12.05;67.27;98297.81;107880;1274;95827;-65
2022/09/19 11:14:22;;;;;;;7.10;3.10;;;;;;;12.03;67.19;98300.33;106231;1274;97879;-64
2022/09/19 11:17:16;;;;;;;8.90;3.40;;;;;;;12.02;67.12;98302.89;106113;1274;111145;-65
2022/09/19 11:20:02;;;;;;;6.20;3.20;;;;;;;12.03;67.03;98305.27;106036;1274;97712;-65
2022/09/19 11:23:18;;;;;;;6.90;3.40;;;;;;;12.02;67.06;98302.20;106059;1274;108319;-65
2022/09/19 11:26:10;;;;;;;8.00;3.00;;;;;;;12.03;67.08;98304.45;106097;1274;97893;-66
2022/09/19 11:28:54;;;;;;;8.50;3.10;;;;;;;11.99;66.63;98305.52;106049;1274;96971;-64
2022/09/19 11:31:29;;;;;;;12.50;3.40;;;;;;;11.93;66.57;98306.77;106013;1274;110366;-64
2022/09/19 11:34:31;;;;;;;6.30;2.80;;;;;;;11.94;66.68;98305.95;106081;1274;97676;-65
2022/09/19 11:37:41;;;;;;;6.40;3.00;;;;;;;12.02;66.63;98304.30;106125;1274;107358;-65
2022/09/19 11:40:41;;;;;;;11.30;3.90;;;;;;;12.08;66.49;98306.27;106064;1274;95350;-64
2022/09/19 11:43:44;;;;;;;9.80;3.50;;;;;;;12.10;66.50;98302.35;106002;1274;97903;-64
2022/09/19 11:46:27;;;;;;;4.60;2.90;;;;;;;12.18;66.40;98293.67;106069;1274;112209;-65
2022/09/19 11:49:31;;;;;;;5.30;2.60;;;;;;;12.28;66.42;98295.76;106006;1274;97863;-64
2022/09/19 11:52:20;;;;;;;6.40;2.90;;;;;;;12.41;66.38;98293.30;106160;1274;108427;-65
2022/09/19 11:55:46;;;;;;;9.00;3.20;;;;;;;12.51;66.23;98290.45;106155;1274;96877;-65
2022/09/19 11:58:39;;;;;;;10.50;3.20;;;;;;;12.63;66.30;98289.09;105855;1282;97839;-64
2022/09/19 12:01:28;;;;;;;8.00;3.30;;;;;;;12.70;66.07;98290.08;106032;1274;112717;-65
2022/09/19 12:04:39;;;;;;;4.60;3.10;;;;;;;12.80;65.89;98285.42;106119;1273;96601;-64
2022/09/19 12:07:25;;;;;;;7.20;3.10;;;;;;;12.90;65.91;98281.64;106023;1274;108370;-66
2022/09/19 12:10:32;;;;;;;7.90;2.60;;;;;;;12.89;65.71;98288.30;105995;1274;97905;-66
2022/09/19 12:13:09;;;;;;;9.50;2.90;;;;;;;12.78;65.54;98283.99;105789;1274;98088;-64
2022/09/19 12:15:40;;;;;;;7.40;2.90;;;;;;;12.78;65.55;98281.86;105949;1274;112304;-65
2022/09/19 12:18:28;;;;;;;11.00;2.90;;;;;;;12.80;65.45;98282.23;106046;1274;97987;-65
2022/09/19 12:21:00;;;;;;;7.00;2.70;;;;;;;12.83;65.45;98285.39;106085;1274;107647;-64
2022/09/19 12:26:34;;;;;;;5.10;2.30;;;;;;;12.92;65.30;98280.96;105989;1274;97918;-64